Time;durP1;ratioP1;P1;durP2;ratioP2;P2;SDS_P1;SDS_P2;PMS_P1;PMS_P2;Temp;Humidity;BMP_temperature;BMP_pressure;BME280_temperature;BME280_humidity;BME280_pressure;Samples;Min_cycle;Max_cycle;Signal;HPM_P1;HPM_P2
2023/06/15 00:01:59;;;;;;;56.08;28.77;;;;;;;;;;4998765;28;20042;-41
2023/06/15 00:04:24;;;;;;;51.60;26.67;;;;;;;;;;5002005;28;20042;-41
2023/06/15 00:06:50;;;;;;;48.88;24.70;;;;;;;;;;4997181;28;20038;-41
2023/06/15 00:09:15;;;;;;;49.38;23.98;;;;;;;;;;4982532;28;20054;-40
2023/06/15 00:11:41;;;;;;;47.50;23.85;;;;;;;;;;4984680;28;20034;-42
2023/06/15 00:14:07;;;;;;;42.55;22.08;;;;;;;;;;4999863;28;20029;-41
2023/06/15 00:16:33;;;;;;;40.20;21.42;;;;;;;;;;5001249;28;20037;-41
2023/06/15 00:18:59;;;;;;;40.17;21.20;;;;;;;;;;5001093;28;20031;-40
2023/06/15 00:21:26;;;;;;;39.35;19.67;;;;;;;;;;4999488;28;20391;-44
2023/06/15 00:23:51;;;;;;;36.60;17.98;;;;;;;;;;5001526;28;20058;-41
2023/06/15 00:26:17;;;;;;;33.25;16.67;;;;;;;;;;5002632;28;20066;-41
2023/06/15 00:28:42;;;;;;;34.03;18.20;;;;;;;;;;5003345;28;20045;-41
2023/06/15 00:31:07;;;;;;;31.77;17.33;;;;;;;;;;4999564;28;20018;-40
2023/06/15 00:33:33;;;;;;;32.58;16.95;;;;;;;;;;4998380;28;20056;-40
2023/06/15 00:35:59;;;;;;;31.15;15.43;;;;;;;;;;4997647;28;20490;-41
2023/06/15 00:38:24;;;;;;;24.58;14.45;;;;;;;;;;5001076;28;20081;-41
2023/06/15 00:40:50;;;;;;;27.13;13.80;;;;;;;;;;5002132;28;20394;-41
2023/06/15 00:43:18;;;;;;;23.83;13.70;;;;;;;;;;4999541;28;20161;-41
2023/06/15 00:45:44;;;;;;;28.67;14.07;;;;;;;;;;4999593;28;20112;-41
2023/06/15 00:48:10;;;;;;;22.58;12.90;;;;;;;;;;5002628;28;20121;-40
2023/06/15 00:50:38;;;;;;;23.02;13.30;;;;;;;;;;4997656;28;20050;-40
2023/06/15 00:53:05;;;;;;;27.45;12.55;;;;;;;;;;4998732;28;20501;-41
2023/06/15 00:55:34;;;;;;;26.50;12.68;;;;;;;;;;5001011;28;20034;-41
2023/06/15 00:58:00;;;;;;;21.33;12.43;;;;;;;;;;4998637;28;20045;-41
2023/06/15 01:00:26;;;;;;;24.00;13.35;;;;;;;;;;4998305;28;20018;-41
2023/06/15 01:02:56;;;;;;;23.52;12.52;;;;;;;;;;4998183;28;20045;-46
2023/06/15 01:05:22;;;;;;;21.15;11.85;;;;;;;;;;4998153;28;20033;-41
2023/06/15 01:07:50;;;;;;;20.77;11.98;;;;;;;;;;4997162;28;20133;-44
2023/06/15 01:10:19;;;;;;;21.45;12.27;;;;;;;;;;4997927;28;20045;-41
2023/06/15 01:12:45;;;;;;;25.85;12.25;;;;;;;;;;4998513;28;20045;-41
2023/06/15 01:15:14;;;;;;;22.38;12.70;;;;;;;;;;5001513;28;20034;-41
2023/06/15 01:17:44;;;;;;;25.48;12.00;;;;;;;;;;4998286;28;20034;-41
2023/06/15 01:20:17;;;;;;;25.00;12.75;;;;;;;;;;5001470;28;20037;-41
2023/06/15 01:22:55;;;;;;;17.98;11.73;;;;;;;;;;4998436;28;20096;-41
2023/06/15 01:25:41;;;;;;;16.95;10.70;;;;;;;;;;4998136;28;20725;-40
2023/06/15 01:28:09;;;;;;;20.58;11.88;;;;;;;;;;5000131;28;20081;-41
2023/06/15 01:30:43;;;;;;;18.60;11.40;;;;;;;;;;4999145;28;20030;-41
2023/06/15 01:33:10;;;;;;;19.38;11.88;;;;;;;;;;5000682;28;20068;-40
2023/06/15 01:35:35;;;;;;;16.23;10.80;;;;;;;;;;4999519;28;20026;-40
2023/06/15 01:38:01;;;;;;;13.18;10.57;;;;;;;;;;4998131;28;20049;-40
2023/06/15 01:40:28;;;;;;;16.52;11.13;;;;;;;;;;4997044;28;20026;-40
2023/06/15 01:42:55;;;;;;;18.83;12.00;;;;;;;;;;5000483;28;20073;-40
2023/06/15 01:45:21;;;;;;;16.27;11.02;;;;;;;;;;5000375;28;20022;-40
2023/06/15 01:47:49;;;;;;;16.63;10.73;;;;;;;;;;5001398;28;20085;-41
2023/06/15 01:50:15;;;;;;;18.73;11.43;;;;;;;;;;5000238;28;20042;-40
2023/06/15 01:52:40;;;;;;;18.58;11.07;;;;;;;;;;4997251;28;20038;-40
2023/06/15 01:55:07;;;;;;;18.42;10.23;;;;;;;;;;4999386;28;20046;-40
2023/06/15 01:57:37;;;;;;;13.35;10.18;;;;;;;;;;4997576;28;20049;-40
2023/06/15 02:00:03;;;;;;;17.27;10.57;;;;;;;;;;5001017;28;20030;-40
2023/06/15 02:02:30;;;;;;;14.40;10.85;;;;;;;;;;4995532;28;20045;-40
2023/06/15 02:04:55;;;;;;;17.65;11.05;;;;;;;;;;5000436;28;20030;-40
2023/06/15 02:07:20;;;;;;;21.05;10.98;;;;;;;;;;4997651;28;20045;-40
2023/06/15 02:09:46;;;;;;;15.30;9.85;;;;;;;;;;4998800;28;20030;-40
2023/06/15 02:12:11;;;;;;;12.98;9.90;;;;;;;;;;4999432;28;20046;-40
2023/06/15 02:14:36;;;;;;;17.73;10.27;;;;;;;;;;4999796;28;20034;-40
2023/06/15 02:17:02;;;;;;;13.07;9.13;;;;;;;;;;4998718;28;20044;-40
2023/06/15 02:19:27;;;;;;;13.30;8.57;;;;;;;;;;4999714;28;20630;-40
2023/06/15 02:21:53;;;;;;;12.57;8.80;;;;;;;;;;4998269;28;20041;-39
2023/06/15 02:24:19;;;;;;;15.02;9.02;;;;;;;;;;4997940;28;20030;-40
2023/06/15 02:26:46;;;;;;;13.07;8.20;;;;;;;;;;4997522;28;20399;-40
2023/06/15 02:29:11;;;;;;;12.55;9.20;;;;;;;;;;4996783;28;20034;-40
2023/06/15 02:31:37;;;;;;;12.13;9.25;;;;;;;;;;5000227;28;20025;-40
2023/06/15 02:34:03;;;;;;;14.52;8.57;;;;;;;;;;5000132;28;20026;-40
2023/06/15 02:36:28;;;;;;;13.15;8.60;;;;;;;;;;4998242;28;20124;-40
2023/06/15 02:38:54;;;;;;;11.35;7.95;;;;;;;;;;4999656;28;20474;-40
2023/06/15 02:41:19;;;;;;;9.60;7.78;;;;;;;;;;4999070;28;20125;-40
2023/06/15 02:43:45;;;;;;;9.15;7.00;;;;;;;;;;4998690;28;20042;-40
2023/06/15 02:46:10;;;;;;;10.65;7.60;;;;;;;;;;5000230;28;21016;-40
2023/06/15 02:48:35;;;;;;;10.85;7.45;;;;;;;;;;4997863;28;20045;-41
2023/06/15 02:51:01;;;;;;;10.30;7.82;;;;;;;;;;4997283;28;20125;-40
2023/06/15 02:53:26;;;;;;;10.15;7.70;;;;;;;;;;4998100;28;20045;-40
2023/06/15 02:55:52;;;;;;;13.48;7.22;;;;;;;;;;4998804;28;20707;-40
2023/06/15 02:58:19;;;;;;;8.55;7.20;;;;;;;;;;4998416;28;20061;-41
2023/06/15 03:00:49;;;;;;;8.77;6.80;;;;;;;;;;4994919;28;20038;-40
2023/06/15 03:03:16;;;;;;;9.45;6.97;;;;;;;;;;4998209;28;20049;-40
2023/06/15 03:05:42;;;;;;;10.43;6.57;;;;;;;;;;4996407;28;20030;-40
2023/06/15 03:08:08;;;;;;;7.15;6.00;;;;;;;;;;4998341;28;20132;-40
2023/06/15 03:10:34;;;;;;;6.70;6.05;;;;;;;;;;4997470;28;20113;-40
2023/06/15 03:13:00;;;;;;;10.45;6.72;;;;;;;;;;4997898;28;20046;-40
2023/06/15 03:15:25;;;;;;;7.63;5.35;;;;;;;;;;4997820;28;20034;-40
2023/06/15 03:17:51;;;;;;;8.10;6.30;;;;;;;;;;4997592;28;20033;-40
2023/06/15 03:20:16;;;;;;;7.82;6.32;;;;;;;;;;4995930;28;20494;-40
2023/06/15 03:22:42;;;;;;;6.78;5.80;;;;;;;;;;4995851;28;20097;-40
2023/06/15 03:25:10;;;;;;;9.52;5.40;;;;;;;;;;4996775;28;20022;-41
2023/06/15 03:27:37;;;;;;;6.32;5.53;;;;;;;;;;4997080;28;20045;-40
2023/06/15 03:30:05;;;;;;;10.73;5.97;;;;;;;;;;5002769;28;20049;-40
2023/06/15 03:32:32;;;;;;;5.60;4.70;;;;;;;;;;5001520;28;20121;-40
2023/06/15 03:34:57;;;;;;;4.35;4.03;;;;;;;;;;4999387;28;20886;-40
2023/06/15 03:37:23;;;;;;;4.55;3.83;;;;;;;;;;5002313;28;20042;-40
2023/06/15 03:39:48;;;;;;;5.45;4.25;;;;;;;;;;5003102;28;20031;-40
2023/06/15 03:42:14;;;;;;;4.57;4.13;;;;;;;;;;5001963;28;20095;-40
2023/06/15 03:44:40;;;;;;;5.93;3.70;;;;;;;;;;5002764;28;20030;-41
2023/06/15 03:47:06;;;;;;;4.80;3.85;;;;;;;;;;5000556;28;20139;-40
2023/06/15 03:49:31;;;;;;;4.88;3.78;;;;;;;;;;5000087;28;20026;-41
2023/06/15 03:51:56;;;;;;;4.60;3.53;;;;;;;;;;4998617;28;20042;-41
2023/06/15 03:54:22;;;;;;;4.78;3.80;;;;;;;;;;5002900;28;20041;-40
2023/06/15 03:56:47;;;;;;;7.60;3.30;;;;;;;;;;5001933;28;20449;-40
2023/06/15 03:59:12;;;;;;;10.45;3.47;;;;;;;;;;5001687;28;20037;-40
2023/06/15 04:01:38;;;;;;;9.05;3.63;;;;;;;;;;5001861;28;20026;-40
2023/06/15 04:04:03;;;;;;;9.93;3.85;;;;;;;;;;4999938;28;20067;-43
2023/06/15 04:06:29;;;;;;;3.95;3.55;;;;;;;;;;5000236;28;20053;-42
2023/06/15 04:08:55;;;;;;;4.70;4.15;;;;;;;;;;5003113;28;20037;-41
2023/06/15 04:11:20;;;;;;;9.10;4.30;;;;;;;;;;5002236;28;20695;-41
2023/06/15 04:13:46;;;;;;;8.48;4.20;;;;;;;;;;4999312;28;20038;-41
2023/06/15 04:16:11;;;;;;;4.90;3.95;;;;;;;;;;5000254;28;20113;-40
2023/06/15 04:18:37;;;;;;;7.20;3.67;;;;;;;;;;5000473;28;20045;-40
2023/06/15 04:21:04;;;;;;;4.93;4.13;;;;;;;;;;5003740;28;20052;-40
2023/06/15 04:23:29;;;;;;;4.57;4.18;;;;;;;;;;4999628;28;20034;-41
2023/06/15 04:25:58;;;;;;;10.55;3.80;;;;;;;;;;4998511;28;20099;-41
2023/06/15 04:28:24;;;;;;;3.83;3.53;;;;;;;;;;5000211;28;20084;-40
2023/06/15 04:31:05;;;;;;;8.13;3.97;;;;;;;;;;5001046;28;20121;-41
2023/06/15 04:33:32;;;;;;;4.40;4.00;;;;;;;;;;4998811;28;20034;-41
2023/06/15 04:35:57;;;;;;;3.70;3.40;;;;;;;;;;4998652;28;20021;-41
2023/06/15 04:38:22;;;;;;;3.97;3.55;;;;;;;;;;5001011;28;20525;-41
2023/06/15 04:40:48;;;;;;;3.97;3.60;;;;;;;;;;4999806;28;20064;-41
2023/06/15 04:43:13;;;;;;;6.85;3.88;;;;;;;;;;4997981;28;20041;-41
2023/06/15 04:45:38;;;;;;;3.92;3.63;;;;;;;;;;5000792;28;20034;-41
2023/06/15 04:48:05;;;;;;;4.88;3.72;;;;;;;;;;4999781;28;20108;-41
2023/06/15 04:50:32;;;;;;;4.50;3.65;;;;;;;;;;5001361;28;20053;-41
2023/06/15 04:52:58;;;;;;;4.05;3.40;;;;;;;;;;4995837;28;20754;-41
2023/06/15 04:55:23;;;;;;;3.83;3.40;;;;;;;;;;5001731;28;20458;-41
2023/06/15 04:57:48;;;;;;;4.35;3.30;;;;;;;;;;4998608;28;20045;-42
2023/06/15 05:00:15;;;;;;;3.20;3.00;;;;;;;;;;5000356;28;20120;-41
2023/06/15 05:02:40;;;;;;;5.45;3.40;;;;;;;;;;4999294;28;20046;-41
2023/06/15 05:05:06;;;;;;;4.97;3.35;;;;;;;;;;4999101;28;20052;-41
2023/06/15 05:07:31;;;;;;;4.25;3.50;;;;;;;;;;4994350;28;20137;-41
2023/06/15 05:09:57;;;;;;;3.28;3.05;;;;;;;;;;4995271;28;20160;-41
2023/06/15 05:12:22;;;;;;;3.70;3.40;;;;;;;;;;5000204;28;20049;-42
2023/06/15 05:14:48;;;;;;;3.80;3.20;;;;;;;;;;4995364;28;20034;-41
2023/06/15 05:17:13;;;;;;;5.47;3.15;;;;;;;;;;4996665;28;20410;-42
2023/06/15 05:19:39;;;;;;;3.88;3.13;;;;;;;;;;5001535;28;20117;-41
2023/06/15 05:22:05;;;;;;;3.33;3.03;;;;;;;;;;5000356;28;20053;-42
2023/06/15 05:24:31;;;;;;;3.53;2.83;;;;;;;;;;4999590;28;20026;-41
2023/06/15 05:26:57;;;;;;;5.00;3.65;;;;;;;;;;4994658;28;20042;-41
2023/06/15 05:29:23;;;;;;;5.18;3.40;;;;;;;;;;4992973;28;20033;-41
2023/06/15 05:31:48;;;;;;;4.55;3.05;;;;;;;;;;4992472;28;20034;-42
2023/06/15 05:34:14;;;;;;;4.03;3.38;;;;;;;;;;4994796;28;20033;-41
2023/06/15 05:36:39;;;;;;;5.57;2.80;;;;;;;;;;4998027;28;20049;-41
2023/06/15 05:39:06;;;;;;;7.13;3.33;;;;;;;;;;4995257;28;21307;-40
2023/06/15 05:41:31;;;;;;;3.13;2.80;;;;;;;;;;4996274;28;20042;-41
2023/06/15 05:43:58;;;;;;;3.35;3.15;;;;;;;;;;4999934;28;20955;-41
2023/06/15 05:46:23;;;;;;;4.00;2.63;;;;;;;;;;4994241;28;20046;-41
2023/06/15 05:48:48;;;;;;;3.15;2.70;;;;;;;;;;4999600;28;20022;-40
2023/06/15 05:51:14;;;;;;;3.50;3.08;;;;;;;;;;4997689;28;20026;-40
2023/06/15 05:53:39;;;;;;;3.85;2.40;;;;;;;;;;4999165;28;20559;-41
2023/06/15 05:56:04;;;;;;;3.47;2.63;;;;;;;;;;4996793;28;20497;-41
2023/06/15 05:58:30;;;;;;;5.43;2.33;;;;;;;;;;4998906;28;20081;-41
2023/06/15 06:00:55;;;;;;;5.40;2.58;;;;;;;;;;4997874;28;20041;-41
2023/06/15 06:03:21;;;;;;;4.60;2.28;;;;;;;;;;4997435;28;20470;-41
2023/06/15 06:05:46;;;;;;;7.13;2.60;;;;;;;;;;4996238;28;20038;-41
2023/06/15 06:08:12;;;;;;;8.35;2.60;;;;;;;;;;4999080;28;20041;-40
2023/06/15 06:10:37;;;;;;;5.97;2.35;;;;;;;;;;4996297;28;20026;-40
2023/06/15 06:13:02;;;;;;;4.50;2.55;;;;;;;;;;4992614;28;20429;-40
2023/06/15 06:15:28;;;;;;;6.25;2.38;;;;;;;;;;4991769;28;20045;-41
2023/06/15 06:17:53;;;;;;;5.90;2.45;;;;;;;;;;4997547;28;20073;-41
2023/06/15 06:20:18;;;;;;;3.85;2.10;;;;;;;;;;4994021;28;20120;-41
2023/06/15 06:22:44;;;;;;;3.15;2.00;;;;;;;;;;5000135;28;20048;-40
2023/06/15 06:25:11;;;;;;;6.28;2.10;;;;;;;;;;5000860;28;20037;-41
2023/06/15 06:27:36;;;;;;;4.57;2.00;;;;;;;;;;4996352;28;20489;-41
2023/06/15 06:30:02;;;;;;;6.05;2.08;;;;;;;;;;4996801;28;20025;-41
2023/06/15 06:32:27;;;;;;;2.40;2.20;;;;;;;;;;4997916;28;20065;-40
2023/06/15 06:34:52;;;;;;;3.55;2.00;;;;;;;;;;5000203;28;20113;-40
2023/06/15 06:37:18;;;;;;;3.03;1.65;;;;;;;;;;4999801;28;20534;-41
2023/06/15 06:39:43;;;;;;;3.47;1.85;;;;;;;;;;4998365;28;20053;-41
2023/06/15 06:42:09;;;;;;;9.88;2.30;;;;;;;;;;4997683;28;20046;-41
2023/06/15 06:44:34;;;;;;;5.97;2.63;;;;;;;;;;4996367;28;20034;-41
2023/06/15 06:47:01;;;;;;;4.18;2.28;;;;;;;;;;4998856;28;20414;-41
2023/06/15 06:49:26;;;;;;;5.18;3.03;;;;;;;;;;5000656;28;20042;-41
2023/06/15 06:51:52;;;;;;;2.70;2.33;;;;;;;;;;4999032;28;20046;-41
2023/06/15 06:54:17;;;;;;;5.50;3.40;;;;;;;;;;4999157;28;20026;-41
2023/06/15 06:56:43;;;;;;;4.95;3.05;;;;;;;;;;4997295;28;20108;-41
2023/06/15 06:59:08;;;;;;;5.65;2.63;;;;;;;;;;4998225;28;20092;-40
2023/06/15 07:01:34;;;;;;;5.18;2.72;;;;;;;;;;4998534;28;20132;-40
2023/06/15 07:03:59;;;;;;;6.93;2.67;;;;;;;;;;5003464;28;20109;-40
2023/06/15 07:06:25;;;;;;;7.55;3.20;;;;;;;;;;5002868;28;20083;-40
2023/06/15 07:08:50;;;;;;;2.88;2.67;;;;;;;;;;5002357;28;22373;-40
2023/06/15 07:11:15;;;;;;;8.27;3.05;;;;;;;;;;5004458;28;20140;-40
2023/06/15 07:13:41;;;;;;;3.30;3.00;;;;;;;;;;4998730;28;20572;-40
2023/06/15 07:16:06;;;;;;;2.95;2.67;;;;;;;;;;5001405;28;20030;-40
2023/06/15 07:18:32;;;;;;;4.45;3.20;;;;;;;;;;5001277;28;20037;-40
2023/06/15 07:20:58;;;;;;;5.40;3.28;;;;;;;;;;5001916;28;20036;-40
2023/06/15 07:23:25;;;;;;;4.60;3.50;;;;;;;;;;5000001;28;20038;-40
2023/06/15 07:25:52;;;;;;;6.38;3.35;;;;;;;;;;5002973;28;20045;-40
2023/06/15 07:28:18;;;;;;;3.53;3.17;;;;;;;;;;5000055;28;20259;-40
2023/06/15 07:30:44;;;;;;;3.63;3.33;;;;;;;;;;5001674;28;20112;-40
2023/06/15 07:33:13;;;;;;;8.60;3.30;;;;;;;;;;5001913;28;20049;-40
2023/06/15 07:35:38;;;;;;;7.28;3.30;;;;;;;;;;5000908;28;20060;-41
2023/06/15 07:38:04;;;;;;;3.38;3.08;;;;;;;;;;5000667;28;20062;-40
2023/06/15 07:40:29;;;;;;;13.00;3.45;;;;;;;;;;5002305;28;20022;-40
2023/06/15 07:42:55;;;;;;;10.35;3.28;;;;;;;;;;5001227;28;20045;-40
2023/06/15 07:45:20;;;;;;;4.30;3.22;;;;;;;;;;5002647;28;20014;-40
2023/06/15 07:47:46;;;;;;;6.68;3.22;;;;;;;;;;5003018;28;20041;-40
2023/06/15 07:50:11;;;;;;;4.63;3.25;;;;;;;;;;5002682;28;20022;-40
2023/06/15 07:52:37;;;;;;;4.75;3.40;;;;;;;;;;5001676;28;20438;-40
2023/06/15 07:55:03;;;;;;;8.65;3.25;;;;;;;;;;5002726;28;20029;-41
2023/06/15 07:57:29;;;;;;;4.93;3.45;;;;;;;;;;5001464;28;20038;-40
2023/06/15 07:59:55;;;;;;;6.40;3.25;;;;;;;;;;5002243;28;20049;-40
2023/06/15 08:02:20;;;;;;;5.88;3.63;;;;;;;;;;5002483;28;20419;-40
2023/06/15 08:04:45;;;;;;;4.47;3.55;;;;;;;;;;4999364;28;20052;-40
2023/06/15 08:07:12;;;;;;;9.02;3.55;;;;;;;;;;5000499;28;20050;-40
2023/06/15 08:09:37;;;;;;;4.47;3.47;;;;;;;;;;5001111;28;20068;-40
2023/06/15 08:12:03;;;;;;;4.57;3.55;;;;;;;;;;5001563;28;20087;-40
2023/06/15 08:14:29;;;;;;;10.05;3.30;;;;;;;;;;5001341;28;20060;-40
2023/06/15 08:16:54;;;;;;;7.90;3.70;;;;;;;;;;5000548;28;20046;-40
2023/06/15 08:19:20;;;;;;;3.13;2.83;;;;;;;;;;5002821;28;20441;-41
2023/06/15 08:21:46;;;;;;;4.18;3.38;;;;;;;;;;5000340;28;20164;-40
2023/06/15 08:24:12;;;;;;;6.30;3.42;;;;;;;;;;5002829;28;20038;-40
2023/06/15 08:26:37;;;;;;;6.50;3.40;;;;;;;;;;5000311;28;20046;-40
2023/06/15 08:29:03;;;;;;;5.68;3.08;;;;;;;;;;4999802;28;20087;-41
2023/06/15 08:31:29;;;;;;;12.40;3.80;;;;;;;;;;4998763;28;20038;-40
2023/06/15 08:33:55;;;;;;;7.90;3.58;;;;;;;;;;5001096;28;20030;-40
2023/06/15 08:36:20;;;;;;;5.88;3.70;;;;;;;;;;5001531;28;20083;-41
2023/06/15 08:38:46;;;;;;;9.10;3.38;;;;;;;;;;5000523;28;20554;-40
2023/06/15 08:41:12;;;;;;;3.50;3.05;;;;;;;;;;4999613;28;20057;-40
2023/06/15 08:43:41;;;;;;;5.28;3.47;;;;;;;;;;5000244;28;20039;-41
2023/06/15 08:46:07;;;;;;;5.40;3.42;;;;;;;;;;4999130;28;20057;-40
2023/06/15 08:48:34;;;;;;;4.65;4.00;;;;;;;;;;5002055;28;20438;-40
2023/06/15 08:50:59;;;;;;;7.85;3.80;;;;;;;;;;4999551;28;20026;-40
2023/06/15 08:53:28;;;;;;;5.00;3.75;;;;;;;;;;5000399;28;20048;-41
2023/06/15 08:55:54;;;;;;;5.97;3.60;;;;;;;;;;5002089;28;20041;-40
2023/06/15 08:58:19;;;;;;;3.85;3.55;;;;;;;;;;5002321;28;20052;-40
2023/06/15 09:00:45;;;;;;;13.57;3.53;;;;;;;;;;5002084;28;20037;-41
2023/06/15 09:03:11;;;;;;;7.43;4.25;;;;;;;;;;4999552;28;20041;-40
2023/06/15 09:05:36;;;;;;;5.10;3.63;;;;;;;;;;4998999;28;20026;-40
2023/06/15 09:08:03;;;;;;;3.60;3.30;;;;;;;;;;5001167;28;20401;-40
2023/06/15 09:10:29;;;;;;;3.80;3.40;;;;;;;;;;5000394;28;20021;-40
2023/06/15 09:12:56;;;;;;;5.78;3.75;;;;;;;;;;5000322;28;20042;-40
2023/06/15 09:15:28;;;;;;;5.80;3.78;;;;;;;;;;4998660;28;20025;-40
2023/06/15 09:17:55;;;;;;;6.68;3.95;;;;;;;;;;4998158;28;20046;-40
2023/06/15 09:20:29;;;;;;;6.82;3.95;;;;;;;;;;5000234;28;20034;-41
2023/06/15 09:23:03;;;;;;;6.63;4.03;;;;;;;;;;5001691;28;20064;-40
2023/06/15 09:25:31;;;;;;;4.55;4.07;;;;;;;;;;4999921;28;20025;-41
2023/06/15 09:27:58;;;;;;;15.27;4.88;;;;;;;;;;4997387;28;20046;-40
2023/06/15 09:30:35;;;;;;;7.35;3.83;;;;;;;;;;5000644;28;20034;-41
2023/06/15 09:33:13;;;;;;;9.60;4.28;;;;;;;;;;4999905;28;20140;-40
2023/06/15 09:36:01;;;;;;;6.18;4.03;;;;;;;;;;5000755;28;20018;-40
2023/06/15 09:38:30;;;;;;;4.40;3.85;;;;;;;;;;5000334;28;20189;-41
2023/06/15 09:40:55;;;;;;;7.30;3.72;;;;;;;;;;4996773;28;20037;-41
2023/06/15 09:43:21;;;;;;;5.88;3.60;;;;;;;;;;4999869;28;20034;-41
2023/06/15 09:45:50;;;;;;;6.43;4.03;;;;;;;;;;4999115;28;20053;-41
2023/06/15 09:48:16;;;;;;;3.97;3.67;;;;;;;;;;4997046;28;20045;-40
2023/06/15 09:50:41;;;;;;;8.25;3.70;;;;;;;;;;4995626;28;20073;-40
2023/06/15 09:53:12;;;;;;;4.75;3.67;;;;;;;;;;4998469;28;20042;-41
2023/06/15 09:55:43;;;;;;;4.05;3.60;;;;;;;;;;4998050;28;20037;-41
2023/06/15 09:58:12;;;;;;;8.77;4.18;;;;;;;;;;4997355;28;20038;-40
2023/06/15 10:00:38;;;;;;;11.23;4.63;;;;;;;;;;4997882;28;20038;-40
2023/06/15 10:03:06;;;;;;;7.43;3.88;;;;;;;;;;5001365;28;20402;-40
2023/06/15 10:05:32;;;;;;;4.60;4.20;;;;;;;;;;4995757;28;20080;-40
2023/06/15 10:08:02;;;;;;;4.35;3.97;;;;;;;;;;4995361;28;20034;-40
2023/06/15 10:10:29;;;;;;;4.72;4.32;;;;;;;;;;4999365;28;20033;-41
2023/06/15 10:12:57;;;;;;;5.88;4.10;;;;;;;;;;4999574;28;20049;-41
2023/06/15 10:15:24;;;;;;;7.97;3.97;;;;;;;;;;4998740;28;20033;-40
2023/06/15 10:17:52;;;;;;;8.00;4.55;;;;;;;;;;4996509;28;20064;-40
2023/06/15 10:20:21;;;;;;;10.80;4.13;;;;;;;;;;5001543;28;20177;-39
2023/06/15 10:23:18;;;;;;;7.50;4.10;;;;;;;;;;4999500;28;20064;-40
2023/06/15 10:25:43;;;;;;;4.22;3.78;;;;;;;;;;4989844;28;20133;-41
2023/06/15 10:28:11;;;;;;;4.72;4.28;;;;;;;;;;4999369;28;20087;-41
2023/06/15 10:30:45;;;;;;;4.82;4.00;;;;;;;;;;4994453;28;20033;-40
2023/06/15 10:33:13;;;;;;;5.00;4.03;;;;;;;;;;4999643;28;20091;-40
2023/06/15 10:35:50;;;;;;;8.30;4.05;;;;;;;;;;4997766;28;20073;-40
2023/06/15 10:38:29;;;;;;;4.25;3.85;;;;;;;;;;4998525;28;20046;-40
2023/06/15 10:40:55;;;;;;;4.28;3.97;;;;;;;;;;4997396;28;20063;-40
2023/06/15 10:43:21;;;;;;;5.38;4.40;;;;;;;;;;4993222;28;20524;-41
2023/06/15 10:45:48;;;;;;;8.30;4.25;;;;;;;;;;4996554;28;20084;-40
2023/06/15 10:48:26;;;;;;;7.68;4.07;;;;;;;;;;4997503;28;20054;-43
2023/06/15 10:51:01;;;;;;;9.93;4.32;;;;;;;;;;4997061;28;20032;-41
2023/06/15 10:53:27;;;;;;;5.00;4.13;;;;;;;;;;4996343;28;20034;-41
2023/06/15 10:55:55;;;;;;;4.32;3.95;;;;;;;;;;4997794;28;20026;-41
2023/06/15 10:58:22;;;;;;;6.30;3.92;;;;;;;;;;5010191;28;20054;-48
2023/06/15 11:01:07;;;;;;;6.65;4.28;;;;;;;;;;4997066;28;20040;-41
2023/06/15 11:03:33;;;;;;;4.40;4.00;;;;;;;;;;5000275;28;20419;-41
2023/06/15 11:06:07;;;;;;;3.95;3.40;;;;;;;;;;5002281;28;20033;-40
2023/06/15 11:08:46;;;;;;;3.95;3.65;;;;;;;;;;5001384;28;20137;-41
2023/06/15 11:11:13;;;;;;;4.65;3.85;;;;;;;;;;4998599;28;20034;-41
2023/06/15 11:14:20;;;;;;;6.90;3.90;;;;;;;;;;5004132;28;20049;-41
2023/06/15 11:17:00;;;;;;;5.00;3.85;;;;;;;;;;4993650;28;20045;-40
2023/06/15 17:38:17;;;;;;;4.88;3.40;;;;;;;;;;5044638;28;20639;-45
2023/06/15 17:40:42;;;;;;;3.50;3.30;;;;;;;;;;5046420;28;20033;-47
2023/06/15 17:43:08;;;;;;;6.57;3.78;;;;;;;;;;5039608;28;20033;-44
2023/06/15 17:45:33;;;;;;;6.53;3.90;;;;;;;;;;5026683;28;20028;-48
2023/06/15 17:47:59;;;;;;;7.22;3.88;;;;;;;;;;5041090;28;20028;-45
2023/06/15 17:50:24;;;;;;;4.82;3.75;;;;;;;;;;5043430;28;20037;-45
2023/06/15 17:52:49;;;;;;;4.13;3.75;;;;;;;;;;5026989;28;20114;-47
2023/06/15 17:55:15;;;;;;;6.47;3.90;;;;;;;;;;5073968;28;20033;-45
2023/06/15 17:57:41;;;;;;;4.50;3.80;;;;;;;;;;5045506;28;20037;-46
2023/06/15 18:00:07;;;;;;;6.00;3.80;;;;;;;;;;5028815;28;20510;-49
2023/06/15 18:02:33;;;;;;;4.20;3.80;;;;;;;;;;5038815;28;20110;-46
2023/06/15 18:04:59;;;;;;;5.50;3.90;;;;;;;;;;5053541;28;20017;-47
2023/06/15 18:07:25;;;;;;;5.63;3.70;;;;;;;;;;5066790;28;20104;-44
2023/06/15 18:09:51;;;;;;;5.20;4.15;;;;;;;;;;5038705;28;20029;-46
2023/06/15 18:12:16;;;;;;;7.85;4.00;;;;;;;;;;5040449;28;20029;-46
2023/06/15 18:14:42;;;;;;;5.50;3.75;;;;;;;;;;5041559;28;20017;-46
2023/06/15 18:17:08;;;;;;;4.05;3.65;;;;;;;;;;5041849;28;20560;-48
2023/06/15 18:19:33;;;;;;;8.15;4.25;;;;;;;;;;5039068;28;20063;-44
2023/06/15 18:21:59;;;;;;;5.03;3.83;;;;;;;;;;5043732;28;20032;-45
2023/06/15 18:24:24;;;;;;;9.00;3.83;;;;;;;;;;5038695;28;20485;-47
2023/06/15 18:26:50;;;;;;;6.47;3.95;;;;;;;;;;5017957;28;20024;-45
2023/06/15 18:29:16;;;;;;;11.15;4.18;;;;;;;;;;5041059;28;20087;-46
2023/06/15 18:31:41;;;;;;;7.03;3.70;;;;;;;;;;5041035;28;20458;-47
2023/06/15 18:35:16;;;;;;;4.32;3.97;;;;;;;;;;5065952;28;20634;-46
2023/06/15 18:37:42;;;;;;;7.80;4.00;;;;;;;;;;5004744;28;20049;-44
2023/06/15 18:40:08;;;;;;;8.10;3.85;;;;;;;;;;5022919;28;20034;-47
2023/06/15 18:42:36;;;;;;;9.35;4.22;;;;;;;;;;4986225;28;20049;-46
2023/06/15 18:45:04;;;;;;;4.35;3.95;;;;;;;;;;5008705;28;20034;-46
2023/06/15 18:47:29;;;;;;;8.15;4.00;;;;;;;;;;4997597;28;20068;-47
2023/06/15 18:49:55;;;;;;;4.63;4.13;;;;;;;;;;5012099;28;20050;-46
2023/06/15 18:52:20;;;;;;;10.18;4.00;;;;;;;;;;5002731;28;20042;-49
2023/06/15 18:54:46;;;;;;;7.93;4.00;;;;;;;;;;5021508;28;21409;-47
2023/06/15 18:57:12;;;;;;;8.57;4.10;;;;;;;;;;4989203;28;20409;-47
2023/06/15 18:59:38;;;;;;;5.05;4.25;;;;;;;;;;5007692;28;20045;-45
2023/06/15 19:02:05;;;;;;;6.80;4.32;;;;;;;;;;4991731;28;20046;-48
2023/06/15 19:04:31;;;;;;;5.45;4.03;;;;;;;;;;5023544;28;20030;-44
2023/06/15 19:06:57;;;;;;;7.25;3.85;;;;;;;;;;5020190;28;20042;-45
2023/06/15 19:09:22;;;;;;;4.50;3.92;;;;;;;;;;5008455;28;20652;-45
2023/06/15 19:11:50;;;;;;;4.53;4.13;;;;;;;;;;5000281;28;20065;-49
2023/06/15 19:14:17;;;;;;;8.10;4.20;;;;;;;;;;5006639;28;20057;-45
2023/06/15 19:16:42;;;;;;;5.63;3.97;;;;;;;;;;5011223;28;20045;-47
2023/06/15 19:19:12;;;;;;;5.00;3.97;;;;;;;;;;5012760;28;20491;-48
2023/06/15 19:21:41;;;;;;;6.35;3.78;;;;;;;;;;5006969;28;20569;-47
2023/06/15 19:24:07;;;;;;;4.50;3.88;;;;;;;;;;5038845;28;20422;-46
2023/06/15 19:26:33;;;;;;;6.63;4.18;;;;;;;;;;5005579;28;20048;-47
2023/06/15 19:29:03;;;;;;;6.68;4.25;;;;;;;;;;4986760;28;20656;-45
2023/06/15 19:31:32;;;;;;;8.55;4.13;;;;;;;;;;5005805;28;20631;-49
2023/06/15 19:33:59;;;;;;;5.72;4.30;;;;;;;;;;4972355;28;20051;-45
2023/06/15 19:36:26;;;;;;;5.55;4.20;;;;;;;;;;4932666;28;20047;-48
2023/06/15 19:38:51;;;;;;;4.82;4.25;;;;;;;;;;4962881;28;20091;-46
2023/06/15 19:41:18;;;;;;;6.72;4.07;;;;;;;;;;4953144;28;20695;-46
2023/06/15 19:43:44;;;;;;;10.38;4.22;;;;;;;;;;4943492;28;20039;-49
2023/06/15 19:46:09;;;;;;;7.43;4.13;;;;;;;;;;4943396;28;20739;-50
2023/06/15 19:48:35;;;;;;;5.53;3.78;;;;;;;;;;4950065;28;20096;-48
2023/06/15 19:51:02;;;;;;;5.35;3.88;;;;;;;;;;4940979;28;20062;-49
2023/06/15 19:53:30;;;;;;;10.15;4.10;;;;;;;;;;4966352;28;20037;-47
2023/06/15 19:56:09;;;;;;;8.70;4.18;;;;;;;;;;4936359;28;20042;-45
2023/06/15 19:58:35;;;;;;;5.13;4.10;;;;;;;;;;4934437;28;20039;-47
2023/06/15 20:01:01;;;;;;;7.68;4.22;;;;;;;;;;4933307;28;20062;-45
2023/06/15 20:03:32;;;;;;;8.13;4.10;;;;;;;;;;4935737;28;20039;-48
2023/06/15 20:06:02;;;;;;;7.82;5.43;;;;;;;;;;4950064;28;20062;-45
2023/06/15 20:08:34;;;;;;;9.20;4.32;;;;;;;;;;4935820;28;20154;-47
2023/06/15 20:11:05;;;;;;;6.68;4.30;;;;;;;;;;4928060;28;20034;-46
2023/06/15 20:13:31;;;;;;;4.63;4.18;;;;;;;;;;4932537;28;20035;-46
2023/06/15 20:16:11;;;;;;;4.07;3.67;;;;;;;;;;4917167;28;20054;-45
2023/06/15 20:18:38;;;;;;;4.82;4.38;;;;;;;;;;4935254;28;20070;-45
2023/06/15 20:21:03;;;;;;;7.38;4.10;;;;;;;;;;4960837;28;20055;-46
2023/06/15 20:23:29;;;;;;;7.40;4.53;;;;;;;;;;4922854;28;20031;-48
2023/06/15 20:25:55;;;;;;;11.13;4.28;;;;;;;;;;5012842;28;20031;-50
2023/06/15 20:28:21;;;;;;;5.95;4.32;;;;;;;;;;4943970;28;20036;-46
2023/06/15 20:30:46;;;;;;;6.82;4.60;;;;;;;;;;4936210;28;20043;-46
2023/06/15 20:33:12;;;;;;;8.48;4.00;;;;;;;;;;4938412;28;20058;-48
2023/06/15 20:35:37;;;;;;;8.93;4.32;;;;;;;;;;4956370;28;20044;-46
2023/06/15 20:38:04;;;;;;;9.23;4.22;;;;;;;;;;4938345;28;20035;-51
2023/06/15 20:40:29;;;;;;;5.70;4.50;;;;;;;;;;4939235;28;20051;-48
2023/06/15 20:42:55;;;;;;;8.10;4.00;;;;;;;;;;4932665;28;20032;-48
2023/06/15 20:45:21;;;;;;;6.32;4.25;;;;;;;;;;4939261;28;20028;-50
2023/06/15 20:47:46;;;;;;;7.00;4.45;;;;;;;;;;4928166;28;20058;-45
2023/06/15 20:50:12;;;;;;;4.40;4.10;;;;;;;;;;4920336;28;20118;-48
2023/06/15 20:52:40;;;;;;;5.43;4.68;;;;;;;;;;4932979;28;20575;-46
2023/06/15 20:55:07;;;;;;;4.75;4.28;;;;;;;;;;5018708;28;20564;-49
2023/06/15 20:57:32;;;;;;;7.18;4.40;;;;;;;;;;4963781;28;20047;-47